sensor_id;sensor_type;location;lat;lon;timestamp;P1;durP1;ratioP1;P2;durP2;ratioP2
71600;SDS011;59446;52.192;4.628;2023-02-12T00:02:06;2.90;;;1.40;;
71600;SDS011;59446;52.192;4.628;2023-02-12T00:04:33;1.17;;;0.80;;
71600;SDS011;59446;52.192;4.628;2023-02-12T00:06:58;2.00;;;1.10;;
71600;SDS011;59446;52.192;4.628;2023-02-12T00:09:24;3.63;;;1.50;;
71600;SDS011;59446;52.192;4.628;2023-02-12T00:11:49;4.35;;;1.50;;
71600;SDS011;59446;52.192;4.628;2023-02-12T00:14:15;3.07;;;1.23;;
71600;SDS011;59446;52.192;4.628;2023-02-12T00:16:41;1.65;;;1.02;;
71600;SDS011;59446;52.192;4.628;2023-02-12T00:19:07;3.93;;;1.23;;
71600;SDS011;59446;52.192;4.628;2023-02-12T00:21:33;2.70;;;1.27;;
71600;SDS011;59446;52.192;4.628;2023-02-12T00:23:59;4.03;;;1.02;;
71600;SDS011;59446;52.192;4.628;2023-02-12T00:26:25;2.77;;;1.20;;
71600;SDS011;59446;52.192;4.628;2023-02-12T00:28:51;4.00;;;1.58;;
71600;SDS011;59446;52.192;4.628;2023-02-12T00:31:18;2.57;;;1.37;;
71600;SDS011;59446;52.192;4.628;2023-02-12T00:33:48;3.45;;;1.42;;
71600;SDS011;59446;52.192;4.628;2023-02-12T00:36:15;3.30;;;1.52;;
71600;SDS011;59446;52.192;4.628;2023-02-12T00:38:43;3.23;;;1.27;;
71600;SDS011;59446;52.192;4.628;2023-02-12T00:41:10;3.38;;;1.25;;
71600;SDS011;59446;52.192;4.628;2023-02-12T00:43:36;2.97;;;1.13;;
71600;SDS011;59446;52.192;4.628;2023-02-12T00:46:01;3.17;;;1.27;;
71600;SDS011;59446;52.192;4.628;2023-02-12T00:48:27;4.03;;;1.50;;
71600;SDS011;59446;52.192;4.628;2023-02-12T00:50:53;2.43;;;1.17;;
71600;SDS011;59446;52.192;4.628;2023-02-12T00:53:18;3.07;;;1.33;;
71600;SDS011;59446;52.192;4.628;2023-02-12T00:55:44;4.07;;;1.23;;
71600;SDS011;59446;52.192;4.628;2023-02-12T00:58:10;2.40;;;1.00;;
71600;SDS011;59446;52.192;4.628;2023-02-12T01:00:35;2.80;;;0.93;;
71600;SDS011;59446;52.192;4.628;2023-02-12T01:03:01;3.67;;;1.30;;
71600;SDS011;59446;52.192;4.628;2023-02-12T01:05:28;3.42;;;1.30;;
71600;SDS011;59446;52.192;4.628;2023-02-12T01:07:54;3.30;;;1.53;;
71600;SDS011;59446;52.192;4.628;2023-02-12T01:10:20;2.95;;;0.80;;
71600;SDS011;59446;52.192;4.628;2023-02-12T01:12:46;2.20;;;1.10;;
71600;SDS011;59446;52.192;4.628;2023-02-12T01:15:12;2.25;;;1.10;;
71600;SDS011;59446;52.192;4.628;2023-02-12T01:17:38;2.10;;;0.75;;
71600;SDS011;59446;52.192;4.628;2023-02-12T01:20:04;3.17;;;1.20;;
71600;SDS011;59446;52.192;4.628;2023-02-12T01:22:33;3.70;;;1.20;;
71600;SDS011;59446;52.192;4.628;2023-02-12T01:24:59;2.08;;;0.90;;
71600;SDS011;59446;52.192;4.628;2023-02-12T01:27:25;2.27;;;0.80;;
71600;SDS011;59446;52.192;4.628;2023-02-12T01:29:50;2.37;;;1.07;;
71600;SDS011;59446;52.192;4.628;2023-02-12T01:32:15;2.00;;;1.13;;
71600;SDS011;59446;52.192;4.628;2023-02-12T01:34:41;3.40;;;1.20;;
71600;SDS011;59446;52.192;4.628;2023-02-12T01:37:06;1.70;;;0.87;;
71600;SDS011;59446;52.192;4.628;2023-02-12T01:39:32;2.10;;;1.23;;
71600;SDS011;59446;52.192;4.628;2023-02-12T01:42:00;2.60;;;1.20;;
71600;SDS011;59446;52.192;4.628;2023-02-12T01:44:29;8.00;;;1.00;;
71600;SDS011;59446;52.192;4.628;2023-02-12T01:46:56;3.03;;;1.17;;
71600;SDS011;59446;52.192;4.628;2023-02-12T01:49:25;3.85;;;1.23;;
71600;SDS011;59446;52.192;4.628;2023-02-12T01:52:14;4.32;;;1.10;;
71600;SDS011;59446;52.192;4.628;2023-02-12T01:54:44;1.83;;;1.00;;
71600;SDS011;59446;52.192;4.628;2023-02-12T01:57:10;1.58;;;0.85;;
71600;SDS011;59446;52.192;4.628;2023-02-12T01:59:38;2.60;;;0.82;;
71600;SDS011;59446;52.192;4.628;2023-02-12T02:02:07;4.35;;;1.05;;
71600;SDS011;59446;52.192;4.628;2023-02-12T02:04:36;1.50;;;0.90;;
71600;SDS011;59446;52.192;4.628;2023-02-12T02:07:05;2.47;;;1.08;;
71600;SDS011;59446;52.192;4.628;2023-02-12T02:09:35;2.37;;;0.90;;
71600;SDS011;59446;52.192;4.628;2023-02-12T02:12:02;1.90;;;0.80;;
71600;SDS011;59446;52.192;4.628;2023-02-12T02:14:47;1.05;;;0.65;;
71600;SDS011;59446;52.192;4.628;2023-02-12T02:31:35;1.50;;;0.80;;
71600;SDS011;59446;52.192;4.628;2023-02-12T02:36:55;1.70;;;1.10;;
71600;SDS011;59446;52.192;4.628;2023-02-12T02:40:18;1.83;;;0.90;;
71600;SDS011;59446;52.192;4.628;2023-02-12T02:45:28;0.93;;;0.70;;
71600;SDS011;59446;52.192;4.628;2023-02-12T02:50:46;2.28;;;1.23;;
71600;SDS011;59446;52.192;4.628;2023-02-12T02:53:17;1.70;;;0.80;;
71600;SDS011;59446;52.192;4.628;2023-02-12T02:55:51;1.10;;;0.80;;
71600;SDS011;59446;52.192;4.628;2023-02-12T02:58:22;1.77;;;0.90;;
71600;SDS011;59446;52.192;4.628;2023-02-12T03:01:10;2.25;;;0.80;;
71600;SDS011;59446;52.192;4.628;2023-02-12T03:03:50;1.10;;;0.70;;
71600;SDS011;59446;52.192;4.628;2023-02-12T03:06:35;1.60;;;0.77;;
71600;SDS011;59446;52.192;4.628;2023-02-12T03:12:24;1.23;;;0.70;;
71600;SDS011;59446;52.192;4.628;2023-02-12T03:15:14;2.23;;;0.80;;
71600;SDS011;59446;52.192;4.628;2023-02-12T03:17:45;2.30;;;0.80;;
71600;SDS011;59446;52.192;4.628;2023-02-12T03:20:14;1.67;;;0.60;;
71600;SDS011;59446;52.192;4.628;2023-02-12T03:22:54;1.73;;;0.80;;
71600;SDS011;59446;52.192;4.628;2023-02-12T03:25:34;2.22;;;0.90;;
71600;SDS011;59446;52.192;4.628;2023-02-12T03:28:13;1.42;;;0.80;;
71600;SDS011;59446;52.192;4.628;2023-02-12T03:33:55;1.25;;;0.75;;
71600;SDS011;59446;52.192;4.628;2023-02-12T03:39:15;1.33;;;0.60;;
71600;SDS011;59446;52.192;4.628;2023-02-12T03:42:14;2.23;;;0.90;;
71600;SDS011;59446;52.192;4.628;2023-02-12T03:47:36;1.40;;;0.70;;
71600;SDS011;59446;52.192;4.628;2023-02-12T03:50:09;1.73;;;0.80;;
71600;SDS011;59446;52.192;4.628;2023-02-12T03:52:44;2.05;;;0.75;;
71600;SDS011;59446;52.192;4.628;2023-02-12T03:55:11;1.20;;;0.73;;
71600;SDS011;59446;52.192;4.628;2023-02-12T03:57:42;1.10;;;0.60;;
71600;SDS011;59446;52.192;4.628;2023-02-12T04:00:12;0.98;;;0.60;;
71600;SDS011;59446;52.192;4.628;2023-02-12T04:02:43;2.00;;;0.80;;
71600;SDS011;59446;52.192;4.628;2023-02-12T04:05:19;2.03;;;0.90;;
71600;SDS011;59446;52.192;4.628;2023-02-12T04:07:47;1.10;;;0.80;;
71600;SDS011;59446;52.192;4.628;2023-02-12T04:10:13;1.70;;;1.00;;
71600;SDS011;59446;52.192;4.628;2023-02-12T04:18:06;1.85;;;0.80;;
71600;SDS011;59446;52.192;4.628;2023-02-12T04:24:04;0.87;;;0.70;;
71600;SDS011;59446;52.192;4.628;2023-02-12T04:35:18;1.10;;;0.70;;
71600;SDS011;59446;52.192;4.628;2023-02-12T04:37:48;0.77;;;0.52;;
71600;SDS011;59446;52.192;4.628;2023-02-12T04:40:18;2.03;;;0.85;;
71600;SDS011;59446;52.192;4.628;2023-02-12T04:42:46;2.70;;;1.00;;
71600;SDS011;59446;52.192;4.628;2023-02-12T04:45:19;2.70;;;0.80;;
71600;SDS011;59446;52.192;4.628;2023-02-12T04:47:53;1.40;;;0.88;;
71600;SDS011;59446;52.192;4.628;2023-02-12T04:50:19;1.13;;;0.87;;
71600;SDS011;59446;52.192;4.628;2023-02-12T04:52:45;2.38;;;0.95;;
71600;SDS011;59446;52.192;4.628;2023-02-12T04:55:11;1.88;;;0.77;;
71600;SDS011;59446;52.192;4.628;2023-02-12T04:57:37;2.13;;;0.73;;
71600;SDS011;59446;52.192;4.628;2023-02-12T05:00:03;1.77;;;0.90;;
71600;SDS011;59446;52.192;4.628;2023-02-12T05:02:30;1.27;;;0.65;;
71600;SDS011;59446;52.192;4.628;2023-02-12T05:04:56;1.23;;;0.98;;
71600;SDS011;59446;52.192;4.628;2023-02-12T05:07:22;1.37;;;0.60;;
71600;SDS011;59446;52.192;4.628;2023-02-12T05:09:47;1.47;;;0.80;;
71600;SDS011;59446;52.192;4.628;2023-02-12T05:12:12;1.00;;;0.70;;
71600;SDS011;59446;52.192;4.628;2023-02-12T05:14:38;1.23;;;0.70;;
71600;SDS011;59446;52.192;4.628;2023-02-12T05:17:03;1.42;;;0.63;;
71600;SDS011;59446;52.192;4.628;2023-02-12T05:19:29;1.03;;;0.60;;
71600;SDS011;59446;52.192;4.628;2023-02-12T05:21:54;1.63;;;0.70;;
71600;SDS011;59446;52.192;4.628;2023-02-12T05:24:19;1.33;;;0.73;;
71600;SDS011;59446;52.192;4.628;2023-02-12T05:26:45;1.07;;;0.60;;
71600;SDS011;59446;52.192;4.628;2023-02-12T05:29:12;1.25;;;0.82;;
71600;SDS011;59446;52.192;4.628;2023-02-12T05:31:38;1.67;;;0.90;;
71600;SDS011;59446;52.192;4.628;2023-02-12T05:34:03;1.03;;;0.73;;
71600;SDS011;59446;52.192;4.628;2023-02-12T05:36:31;1.67;;;1.08;;
71600;SDS011;59446;52.192;4.628;2023-02-12T05:38:57;1.20;;;0.80;;
71600;SDS011;59446;52.192;4.628;2023-02-12T05:41:24;1.10;;;0.60;;
71600;SDS011;59446;52.192;4.628;2023-02-12T05:43:50;2.05;;;0.90;;
71600;SDS011;59446;52.192;4.628;2023-02-12T05:46:16;1.20;;;0.70;;
71600;SDS011;59446;52.192;4.628;2023-02-12T05:48:43;1.33;;;0.80;;
71600;SDS011;59446;52.192;4.628;2023-02-12T05:51:14;2.08;;;1.10;;
71600;SDS011;59446;52.192;4.628;2023-02-12T05:53:46;1.07;;;0.77;;
71600;SDS011;59446;52.192;4.628;2023-02-12T05:58:40;1.50;;;0.80;;
71600;SDS011;59446;52.192;4.628;2023-02-12T06:01:14;1.90;;;0.70;;
71600;SDS011;59446;52.192;4.628;2023-02-12T06:03:42;1.35;;;0.80;;
71600;SDS011;59446;52.192;4.628;2023-02-12T06:06:08;2.10;;;0.88;;
71600;SDS011;59446;52.192;4.628;2023-02-12T06:08:34;1.67;;;0.75;;
71600;SDS011;59446;52.192;4.628;2023-02-12T06:11:00;1.30;;;0.70;;
71600;SDS011;59446;52.192;4.628;2023-02-12T06:13:27;0.93;;;0.70;;
71600;SDS011;59446;52.192;4.628;2023-02-12T06:15:53;1.48;;;0.70;;
71600;SDS011;59446;52.192;4.628;2023-02-12T06:18:19;1.03;;;0.50;;
71600;SDS011;59446;52.192;4.628;2023-02-12T06:20:44;1.00;;;0.50;;
71600;SDS011;59446;52.192;4.628;2023-02-12T06:23:09;1.43;;;0.73;;
71600;SDS011;59446;52.192;4.628;2023-02-12T06:25:35;1.77;;;0.90;;
71600;SDS011;59446;52.192;4.628;2023-02-12T06:28:00;0.53;;;0.53;;
71600;SDS011;59446;52.192;4.628;2023-02-12T06:30:25;1.10;;;0.87;;
71600;SDS011;59446;52.192;4.628;2023-02-12T06:32:51;0.98;;;0.57;;
71600;SDS011;59446;52.192;4.628;2023-02-12T06:35:16;0.93;;;0.60;;
71600;SDS011;59446;52.192;4.628;2023-02-12T06:37:41;1.13;;;0.63;;
71600;SDS011;59446;52.192;4.628;2023-02-12T06:40:07;2.30;;;0.70;;
71600;SDS011;59446;52.192;4.628;2023-02-12T06:42:32;1.33;;;0.80;;
71600;SDS011;59446;52.192;4.628;2023-02-12T06:44:58;0.93;;;0.60;;
71600;SDS011;59446;52.192;4.628;2023-02-12T06:47:23;1.58;;;0.57;;
71600;SDS011;59446;52.192;4.628;2023-02-12T06:49:49;1.83;;;0.70;;
71600;SDS011;59446;52.192;4.628;2023-02-12T06:52:14;1.37;;;0.83;;
71600;SDS011;59446;52.192;4.628;2023-02-12T06:54:39;1.73;;;0.60;;
71600;SDS011;59446;52.192;4.628;2023-02-12T06:57:05;1.98;;;0.60;;
71600;SDS011;59446;52.192;4.628;2023-02-12T06:59:31;1.50;;;0.60;;
71600;SDS011;59446;52.192;4.628;2023-02-12T07:01:56;1.33;;;0.70;;
71600;SDS011;59446;52.192;4.628;2023-02-12T07:04:21;1.03;;;0.80;;
71600;SDS011;59446;52.192;4.628;2023-02-12T07:06:47;0.90;;;0.60;;
71600;SDS011;59446;52.192;4.628;2023-02-12T07:09:12;1.17;;;0.70;;
71600;SDS011;59446;52.192;4.628;2023-02-12T07:11:38;1.03;;;0.63;;
71600;SDS011;59446;52.192;4.628;2023-02-12T07:14:03;0.80;;;0.60;;
71600;SDS011;59446;52.192;4.628;2023-02-12T07:16:29;1.43;;;0.90;;
71600;SDS011;59446;52.192;4.628;2023-02-12T07:18:55;1.20;;;0.60;;
71600;SDS011;59446;52.192;4.628;2023-02-12T07:21:21;0.98;;;0.70;;
71600;SDS011;59446;52.192;4.628;2023-02-12T07:23:47;3.87;;;0.73;;
71600;SDS011;59446;52.192;4.628;2023-02-12T07:26:15;1.55;;;0.60;;
71600;SDS011;59446;52.192;4.628;2023-02-12T07:28:41;0.65;;;0.55;;
71600;SDS011;59446;52.192;4.628;2023-02-12T07:31:11;1.10;;;0.60;;
71600;SDS011;59446;52.192;4.628;2023-02-12T07:33:39;1.00;;;0.63;;
71600;SDS011;59446;52.192;4.628;2023-02-12T07:36:06;0.63;;;0.50;;
71600;SDS011;59446;52.192;4.628;2023-02-12T07:38:34;0.82;;;0.50;;
71600;SDS011;59446;52.192;4.628;2023-02-12T07:41:10;0.93;;;0.80;;
71600;SDS011;59446;52.192;4.628;2023-02-12T07:43:40;1.75;;;0.77;;
71600;SDS011;59446;52.192;4.628;2023-02-12T07:46:11;2.28;;;1.17;;
71600;SDS011;59446;52.192;4.628;2023-02-12T07:48:41;1.53;;;0.90;;
71600;SDS011;59446;52.192;4.628;2023-02-12T07:51:08;1.73;;;0.63;;
71600;SDS011;59446;52.192;4.628;2023-02-12T07:53:35;1.65;;;0.90;;
71600;SDS011;59446;52.192;4.628;2023-02-12T07:56:08;1.15;;;0.80;;
71600;SDS011;59446;52.192;4.628;2023-02-12T07:58:38;3.10;;;1.30;;
71600;SDS011;59446;52.192;4.628;2023-02-12T08:01:11;2.35;;;0.80;;
71600;SDS011;59446;52.192;4.628;2023-02-12T08:03:40;1.27;;;0.90;;
71600;SDS011;59446;52.192;4.628;2023-02-12T08:06:13;1.93;;;1.00;;
71600;SDS011;59446;52.192;4.628;2023-02-12T08:08:41;1.65;;;1.00;;
71600;SDS011;59446;52.192;4.628;2023-02-12T08:11:08;1.88;;;0.90;;
71600;SDS011;59446;52.192;4.628;2023-02-12T08:13:35;1.40;;;0.83;;
71600;SDS011;59446;52.192;4.628;2023-02-12T08:16:02;3.55;;;0.77;;
71600;SDS011;59446;52.192;4.628;2023-02-12T08:18:30;2.13;;;0.70;;
71600;SDS011;59446;52.192;4.628;2023-02-12T08:21:10;1.33;;;0.67;;
71600;SDS011;59446;52.192;4.628;2023-02-12T08:23:40;0.80;;;0.70;;
71600;SDS011;59446;52.192;4.628;2023-02-12T08:26:19;3.53;;;0.80;;
71600;SDS011;59446;52.192;4.628;2023-02-12T08:28:53;0.90;;;0.63;;
71600;SDS011;59446;52.192;4.628;2023-02-12T08:31:25;1.60;;;0.70;;
71600;SDS011;59446;52.192;4.628;2023-02-12T08:33:52;1.60;;;1.15;;
71600;SDS011;59446;52.192;4.628;2023-02-12T08:36:19;1.80;;;0.70;;
71600;SDS011;59446;52.192;4.628;2023-02-12T08:38:47;1.97;;;0.80;;
71600;SDS011;59446;52.192;4.628;2023-02-12T08:41:14;2.20;;;0.82;;
71600;SDS011;59446;52.192;4.628;2023-02-12T08:43:44;1.35;;;0.77;;
71600;SDS011;59446;52.192;4.628;2023-02-12T08:46:14;1.50;;;0.60;;
71600;SDS011;59446;52.192;4.628;2023-02-12T08:48:41;0.88;;;0.50;;
71600;SDS011;59446;52.192;4.628;2023-02-12T08:51:09;1.07;;;0.87;;
71600;SDS011;59446;52.192;4.628;2023-02-12T08:53:36;1.17;;;0.82;;
71600;SDS011;59446;52.192;4.628;2023-02-12T08:56:03;2.55;;;0.80;;
71600;SDS011;59446;52.192;4.628;2023-02-12T08:58:29;2.67;;;0.80;;
71600;SDS011;59446;52.192;4.628;2023-02-12T09:00:55;4.10;;;0.90;;
71600;SDS011;59446;52.192;4.628;2023-02-12T09:03:20;2.63;;;0.93;;
71600;SDS011;59446;52.192;4.628;2023-02-12T09:05:46;1.13;;;0.70;;
71600;SDS011;59446;52.192;4.628;2023-02-12T09:08:11;1.13;;;0.63;;
71600;SDS011;59446;52.192;4.628;2023-02-12T09:10:40;1.27;;;0.70;;
71600;SDS011;59446;52.192;4.628;2023-02-12T09:13:07;1.17;;;0.70;;
71600;SDS011;59446;52.192;4.628;2023-02-12T09:15:37;1.33;;;0.70;;
71600;SDS011;59446;52.192;4.628;2023-02-12T09:18:03;1.95;;;0.82;;
71600;SDS011;59446;52.192;4.628;2023-02-12T09:20:29;1.98;;;0.70;;
71600;SDS011;59446;52.192;4.628;2023-02-12T09:22:55;1.47;;;0.70;;
71600;SDS011;59446;52.192;4.628;2023-02-12T09:25:22;0.93;;;0.70;;
71600;SDS011;59446;52.192;4.628;2023-02-12T09:27:47;0.93;;;0.60;;
71600;SDS011;59446;52.192;4.628;2023-02-12T09:30:12;7.83;;;0.60;;
71600;SDS011;59446;52.192;4.628;2023-02-12T09:32:38;1.45;;;0.90;;
71600;SDS011;59446;52.192;4.628;2023-02-12T09:35:04;1.60;;;0.80;;
71600;SDS011;59446;52.192;4.628;2023-02-12T09:37:29;1.33;;;0.67;;
71600;SDS011;59446;52.192;4.628;2023-02-12T09:39:54;0.70;;;0.60;;
71600;SDS011;59446;52.192;4.628;2023-02-12T09:42:24;1.40;;;0.75;;
71600;SDS011;59446;52.192;4.628;2023-02-12T09:45:02;1.30;;;0.90;;
71600;SDS011;59446;52.192;4.628;2023-02-12T09:47:41;2.45;;;0.90;;
71600;SDS011;59446;52.192;4.628;2023-02-12T09:50:28;0.85;;;0.60;;
71600;SDS011;59446;52.192;4.628;2023-02-12T09:52:56;1.37;;;0.67;;
71600;SDS011;59446;52.192;4.628;2023-02-12T09:55:24;2.25;;;0.80;;
71600;SDS011;59446;52.192;4.628;2023-02-12T09:57:55;1.23;;;0.60;;
71600;SDS011;59446;52.192;4.628;2023-02-12T10:00:23;2.92;;;0.80;;
71600;SDS011;59446;52.192;4.628;2023-02-12T10:02:52;1.97;;;0.90;;
71600;SDS011;59446;52.192;4.628;2023-02-12T10:05:20;1.77;;;0.70;;
71600;SDS011;59446;52.192;4.628;2023-02-12T10:07:59;1.65;;;0.80;;
71600;SDS011;59446;52.192;4.628;2023-02-12T10:10:47;1.03;;;0.73;;
71600;SDS011;59446;52.192;4.628;2023-02-12T10:13:30;1.40;;;0.90;;
71600;SDS011;59446;52.192;4.628;2023-02-12T10:16:13;3.38;;;0.90;;
71600;SDS011;59446;52.192;4.628;2023-02-12T10:19:16;1.20;;;0.80;;
71600;SDS011;59446;52.192;4.628;2023-02-12T10:27:19;1.85;;;0.80;;
71600;SDS011;59446;52.192;4.628;2023-02-12T10:30:03;1.37;;;1.03;;
71600;SDS011;59446;52.192;4.628;2023-02-12T10:32:39;2.63;;;0.80;;
71600;SDS011;59446;52.192;4.628;2023-02-12T10:35:12;1.40;;;0.80;;
71600;SDS011;59446;52.192;4.628;2023-02-12T10:37:43;1.10;;;0.60;;
71600;SDS011;59446;52.192;4.628;2023-02-12T10:40:31;2.63;;;0.70;;
71600;SDS011;59446;52.192;4.628;2023-02-12T10:43:01;1.52;;;0.80;;
71600;SDS011;59446;52.192;4.628;2023-02-12T10:45:32;2.17;;;0.80;;
71600;SDS011;59446;52.192;4.628;2023-02-12T10:48:13;1.42;;;0.73;;
71600;SDS011;59446;52.192;4.628;2023-02-12T10:50:57;2.67;;;0.50;;
71600;SDS011;59446;52.192;4.628;2023-02-12T10:53:32;0.90;;;0.70;;
71600;SDS011;59446;52.192;4.628;2023-02-12T10:56:05;0.50;;;0.50;;
71600;SDS011;59446;52.192;4.628;2023-02-12T11:01:36;1.13;;;0.60;;
71600;SDS011;59446;52.192;4.628;2023-02-12T11:04:20;1.05;;;0.70;;
71600;SDS011;59446;52.192;4.628;2023-02-12T11:09:35;1.10;;;0.80;;
71600;SDS011;59446;52.192;4.628;2023-02-12T11:14:47;1.08;;;0.80;;
71600;SDS011;59446;52.192;4.628;2023-02-12T11:17:19;1.33;;;0.70;;
71600;SDS011;59446;52.192;4.628;2023-02-12T11:20:06;1.17;;;0.70;;
71600;SDS011;59446;52.192;4.628;2023-02-12T11:22:51;1.30;;;1.00;;
71600;SDS011;59446;52.192;4.628;2023-02-12T11:25:23;1.58;;;0.93;;
71600;SDS011;59446;52.192;4.628;2023-02-12T11:30:59;1.67;;;1.48;;
71600;SDS011;59446;52.192;4.628;2023-02-12T11:33:28;1.40;;;0.90;;
71600;SDS011;59446;52.192;4.628;2023-02-12T11:36:03;1.33;;;0.60;;
71600;SDS011;59446;52.192;4.628;2023-02-12T11:38:52;0.90;;;0.73;;
71600;SDS011;59446;52.192;4.628;2023-02-12T11:41:22;1.23;;;0.75;;
71600;SDS011;59446;52.192;4.628;2023-02-12T11:43:51;1.92;;;1.10;;
71600;SDS011;59446;52.192;4.628;2023-02-12T11:46:21;0.90;;;0.70;;
71600;SDS011;59446;52.192;4.628;2023-02-12T11:48:50;0.90;;;0.60;;
71600;SDS011;59446;52.192;4.628;2023-02-12T11:51:25;1.55;;;0.70;;
71600;SDS011;59446;52.192;4.628;2023-02-12T11:53:53;1.90;;;0.80;;
71600;SDS011;59446;52.192;4.628;2023-02-12T11:56:23;2.45;;;0.93;;
71600;SDS011;59446;52.192;4.628;2023-02-12T11:58:49;1.23;;;0.90;;
71600;SDS011;59446;52.192;4.628;2023-02-12T12:01:33;3.83;;;0.80;;
71600;SDS011;59446;52.192;4.628;2023-02-12T12:04:07;1.40;;;0.70;;
71600;SDS011;59446;52.192;4.628;2023-02-12T12:06:39;2.30;;;0.60;;
71600;SDS011;59446;52.192;4.628;2023-02-12T12:11:59;0.85;;;0.73;;
71600;SDS011;59446;52.192;4.628;2023-02-12T12:14:43;1.27;;;0.80;;
71600;SDS011;59446;52.192;4.628;2023-02-12T12:17:50;1.43;;;0.87;;
71600;SDS011;59446;52.192;4.628;2023-02-12T12:26:27;2.20;;;0.83;;
71600;SDS011;59446;52.192;4.628;2023-02-12T12:29:05;2.63;;;0.70;;
71600;SDS011;59446;52.192;4.628;2023-02-12T12:31:40;1.58;;;0.63;;
71600;SDS011;59446;52.192;4.628;2023-02-12T12:34:11;1.77;;;0.80;;
71600;SDS011;59446;52.192;4.628;2023-02-12T12:42:11;1.33;;;0.60;;
71600;SDS011;59446;52.192;4.628;2023-02-12T12:53:41;1.30;;;0.90;;
71600;SDS011;59446;52.192;4.628;2023-02-12T12:56:20;1.23;;;0.65;;
71600;SDS011;59446;52.192;4.628;2023-02-12T12:59:03;1.88;;;0.77;;
71600;SDS011;59446;52.192;4.628;2023-02-12T13:04:36;1.27;;;0.70;;
71600;SDS011;59446;52.192;4.628;2023-02-12T13:10:24;1.70;;;0.80;;
71600;SDS011;59446;52.192;4.628;2023-02-12T13:13:23;1.80;;;0.90;;
71600;SDS011;59446;52.192;4.628;2023-02-12T13:21:39;2.43;;;0.90;;
71600;SDS011;59446;52.192;4.628;2023-02-12T13:27:18;1.52;;;0.75;;
71600;SDS011;59446;52.192;4.628;2023-02-12T13:29:58;2.20;;;0.90;;
71600;SDS011;59446;52.192;4.628;2023-02-12T13:32:29;1.17;;;0.77;;
71600;SDS011;59446;52.192;4.628;2023-02-12T13:35:00;2.20;;;0.90;;
71600;SDS011;59446;52.192;4.628;2023-02-12T13:37:36;2.15;;;0.88;;
71600;SDS011;59446;52.192;4.628;2023-02-12T13:40:06;2.23;;;0.80;;
71600;SDS011;59446;52.192;4.628;2023-02-12T13:54:15;4.07;;;0.90;;
71600;SDS011;59446;52.192;4.628;2023-02-12T13:57:02;1.30;;;0.80;;
71600;SDS011;59446;52.192;4.628;2023-02-12T14:01:59;2.37;;;0.90;;
71600;SDS011;59446;52.192;4.628;2023-02-12T14:04:45;1.98;;;1.05;;
71600;SDS011;59446;52.192;4.628;2023-02-12T14:07:19;1.85;;;0.88;;
71600;SDS011;59446;52.192;4.628;2023-02-12T14:19:56;1.52;;;0.70;;
71600;SDS011;59446;52.192;4.628;2023-02-12T14:27:48;1.47;;;0.90;;
71600;SDS011;59446;52.192;4.628;2023-02-12T14:35:41;1.63;;;1.10;;
71600;SDS011;59446;52.192;4.628;2023-02-12T14:40:37;1.38;;;0.90;;
71600;SDS011;59446;52.192;4.628;2023-02-12T14:48:54;2.13;;;0.77;;
71600;SDS011;59446;52.192;4.628;2023-02-12T14:51:34;3.05;;;0.93;;
71600;SDS011;59446;52.192;4.628;2023-02-12T14:54:05;2.27;;;1.00;;
71600;SDS011;59446;52.192;4.628;2023-02-12T14:56:44;2.28;;;0.80;;
71600;SDS011;59446;52.192;4.628;2023-02-12T14:59:17;1.83;;;0.80;;
71600;SDS011;59446;52.192;4.628;2023-02-12T15:01:46;3.10;;;1.00;;
71600;SDS011;59446;52.192;4.628;2023-02-12T15:04:20;1.48;;;0.70;;
71600;SDS011;59446;52.192;4.628;2023-02-12T15:06:51;2.60;;;0.90;;
71600;SDS011;59446;52.192;4.628;2023-02-12T15:09:31;2.60;;;1.00;;
71600;SDS011;59446;52.192;4.628;2023-02-12T15:12:14;2.67;;;1.08;;
71600;SDS011;59446;52.192;4.628;2023-02-12T15:14:45;2.15;;;0.88;;
71600;SDS011;59446;52.192;4.628;2023-02-12T15:17:19;3.65;;;1.20;;
71600;SDS011;59446;52.192;4.628;2023-02-12T15:20:02;2.67;;;0.97;;
71600;SDS011;59446;52.192;4.628;2023-02-12T15:22:35;1.40;;;0.80;;
71600;SDS011;59446;52.192;4.628;2023-02-12T15:27:51;2.07;;;1.07;;
71600;SDS011;59446;52.192;4.628;2023-02-12T15:30:25;1.98;;;0.88;;
71600;SDS011;59446;52.192;4.628;2023-02-12T15:32:54;1.95;;;0.90;;
71600;SDS011;59446;52.192;4.628;2023-02-12T15:35:23;1.77;;;0.93;;
71600;SDS011;59446;52.192;4.628;2023-02-12T15:37:54;2.42;;;1.10;;
71600;SDS011;59446;52.192;4.628;2023-02-12T15:40:21;4.57;;;1.02;;
71600;SDS011;59446;52.192;4.628;2023-02-12T15:45:29;5.27;;;1.10;;
71600;SDS011;59446;52.192;4.628;2023-02-12T15:50:28;4.63;;;1.20;;
71600;SDS011;59446;52.192;4.628;2023-02-12T15:52:56;2.47;;;1.10;;
71600;SDS011;59446;52.192;4.628;2023-02-12T15:55:23;3.42;;;1.48;;
71600;SDS011;59446;52.192;4.628;2023-02-12T15:57:52;3.67;;;0.93;;
71600;SDS011;59446;52.192;4.628;2023-02-12T16:03:24;2.80;;;1.30;;
71600;SDS011;59446;52.192;4.628;2023-02-12T16:06:01;2.27;;;1.20;;
71600;SDS011;59446;52.192;4.628;2023-02-12T16:08:29;2.40;;;1.30;;
71600;SDS011;59446;52.192;4.628;2023-02-12T16:10:57;2.53;;;1.17;;
71600;SDS011;59446;52.192;4.628;2023-02-12T16:13:29;2.50;;;1.30;;
71600;SDS011;59446;52.192;4.628;2023-02-12T16:16:07;3.45;;;1.38;;
71600;SDS011;59446;52.192;4.628;2023-02-12T16:18:42;2.55;;;1.23;;
71600;SDS011;59446;52.192;4.628;2023-02-12T16:21:15;4.23;;;1.67;;
71600;SDS011;59446;52.192;4.628;2023-02-12T16:23:47;4.72;;;1.70;;
71600;SDS011;59446;52.192;4.628;2023-02-12T16:26:15;3.90;;;1.75;;
71600;SDS011;59446;52.192;4.628;2023-02-12T16:28:49;3.63;;;1.90;;
71600;SDS011;59446;52.192;4.628;2023-02-12T16:31:18;4.32;;;1.83;;
71600;SDS011;59446;52.192;4.628;2023-02-12T16:33:50;4.15;;;1.88;;
71600;SDS011;59446;52.192;4.628;2023-02-12T16:38:58;3.87;;;1.40;;
71600;SDS011;59446;52.192;4.628;2023-02-12T16:41:31;5.03;;;1.70;;
71600;SDS011;59446;52.192;4.628;2023-02-12T16:46:27;3.17;;;1.40;;
71600;SDS011;59446;52.192;4.628;2023-02-12T16:48:55;3.28;;;1.50;;
71600;SDS011;59446;52.192;4.628;2023-02-12T16:51:24;6.13;;;1.60;;
71600;SDS011;59446;52.192;4.628;2023-02-12T16:53:55;4.13;;;1.80;;
71600;SDS011;59446;52.192;4.628;2023-02-12T16:56:22;3.13;;;1.65;;
71600;SDS011;59446;52.192;4.628;2023-02-12T16:58:51;6.50;;;1.90;;
71600;SDS011;59446;52.192;4.628;2023-02-12T17:01:22;3.83;;;1.63;;
71600;SDS011;59446;52.192;4.628;2023-02-12T17:03:49;3.37;;;1.60;;
71600;SDS011;59446;52.192;4.628;2023-02-12T17:06:19;5.80;;;2.10;;
71600;SDS011;59446;52.192;4.628;2023-02-12T17:08:47;4.57;;;1.77;;
71600;SDS011;59446;52.192;4.628;2023-02-12T17:11:12;3.83;;;1.97;;
71600;SDS011;59446;52.192;4.628;2023-02-12T17:13:41;4.07;;;1.73;;
71600;SDS011;59446;52.192;4.628;2023-02-12T17:16:07;5.80;;;1.90;;
71600;SDS011;59446;52.192;4.628;2023-02-12T17:18:32;5.30;;;2.00;;
71600;SDS011;59446;52.192;4.628;2023-02-12T17:21:04;6.93;;;2.20;;
71600;SDS011;59446;52.192;4.628;2023-02-12T17:23:32;4.85;;;2.20;;
71600;SDS011;59446;52.192;4.628;2023-02-12T17:25:58;5.93;;;2.03;;
71600;SDS011;59446;52.192;4.628;2023-02-12T17:28:24;4.50;;;1.80;;
71600;SDS011;59446;52.192;4.628;2023-02-12T17:30:50;4.73;;;1.97;;
71600;SDS011;59446;52.192;4.628;2023-02-12T17:33:16;4.00;;;2.28;;
71600;SDS011;59446;52.192;4.628;2023-02-12T17:35:43;3.20;;;1.80;;
71600;SDS011;59446;52.192;4.628;2023-02-12T17:38:09;4.87;;;2.00;;
71600;SDS011;59446;52.192;4.628;2023-02-12T17:40:35;8.57;;;2.22;;
71600;SDS011;59446;52.192;4.628;2023-02-12T17:43:01;2.57;;;1.17;;
71600;SDS011;59446;52.192;4.628;2023-02-12T17:45:27;3.72;;;1.80;;
71600;SDS011;59446;52.192;4.628;2023-02-12T17:47:53;6.57;;;2.07;;
71600;SDS011;59446;52.192;4.628;2023-02-12T17:50:18;3.85;;;1.60;;
71600;SDS011;59446;52.192;4.628;2023-02-12T17:52:44;4.03;;;1.67;;
71600;SDS011;59446;52.192;4.628;2023-02-12T17:55:09;3.10;;;1.53;;
71600;SDS011;59446;52.192;4.628;2023-02-12T17:57:41;3.30;;;1.48;;